createdAt,value
2022-08-22T00:01:53.201Z,3.55
2022-08-22T00:02:46.055Z,3.33
2022-08-22T00:03:02.490Z,2.72
2022-08-22T00:04:45.215Z,3.78
2022-08-22T00:07:43.615Z,3.67
2022-08-22T00:10:25.039Z,3.40
2022-08-22T00:13:04.605Z,3.35
2022-08-22T00:15:43.122Z,3.33
2022-08-22T00:18:33.969Z,3.50
2022-08-22T00:21:11.366Z,3.42
2022-08-22T00:23:51.125Z,3.80
2022-08-22T00:26:45.067Z,4.18
2022-08-22T00:29:17.722Z,3.45
2022-08-22T00:31:50.982Z,3.70
2022-08-22T00:34:36.377Z,3.35
2022-08-22T00:37:28.367Z,3.85
2022-08-22T00:40:23.301Z,3.70
2022-08-22T00:42:50.312Z,4.03
2022-08-22T00:45:35.458Z,3.78
2022-08-22T00:48:32.886Z,4.43
2022-08-22T00:51:14.994Z,3.60
2022-08-22T00:54:29.397Z,3.55
2022-08-22T00:57:11.452Z,3.40
2022-08-22T01:00:01.231Z,3.75
2022-08-22T01:02:37.144Z,3.53
2022-08-22T01:05:28.405Z,4.22
2022-08-22T01:07:58.534Z,3.97
2022-08-22T01:10:56.279Z,3.92
2022-08-22T01:13:37.782Z,3.85
2022-08-22T01:16:10.569Z,3.65
2022-08-22T01:19:06.458Z,4.03
2022-08-22T01:21:51.697Z,4.00
2022-08-22T01:25:14.995Z,4.03
2022-08-22T01:28:20.427Z,3.95
2022-08-22T01:31:02.195Z,4.13
2022-08-22T01:33:40.991Z,3.88
2022-08-22T01:36:40.577Z,3.78
2022-08-22T01:39:07.487Z,3.33
2022-08-22T01:41:59.645Z,4.10
2022-08-22T01:44:58.027Z,3.88
2022-08-22T01:47:37.368Z,3.78
2022-08-22T01:50:23.748Z,3.58
2022-08-22T01:53:14.686Z,3.42
2022-08-22T01:56:01.433Z,2.85
2022-08-22T01:58:31.997Z,3.47
2022-08-22T02:01:02.110Z,3.67
2022-08-22T02:03:37.430Z,3.40
2022-08-22T02:06:17.505Z,3.22
2022-08-22T02:09:09.132Z,3.60
2022-08-22T02:12:21.777Z,3.40
2022-08-22T02:15:08.021Z,3.10
2022-08-22T02:18:01.075Z,3.55
2022-08-22T02:20:55.612Z,3.58
2022-08-22T02:23:44.107Z,4.20
2022-08-22T02:26:35.576Z,3.92
2022-08-22T02:29:21.309Z,3.85
2022-08-22T02:32:05.416Z,3.70
2022-08-22T02:34:32.377Z,4.43
2022-08-22T02:37:02.676Z,4.05
2022-08-22T02:39:57.241Z,4.00
2022-08-22T02:42:30.165Z,3.60
2022-08-22T02:45:15.810Z,3.80
2022-08-22T02:47:52.852Z,3.70
2022-08-22T02:50:31.840Z,4.10
2022-08-22T02:53:21.288Z,3.72
2022-08-22T02:55:58.004Z,3.70
2022-08-22T02:58:29.508Z,3.47
2022-08-22T03:00:59.644Z,3.63
2022-08-22T03:03:30.105Z,3.15
2022-08-22T03:06:07.747Z,3.35
2022-08-22T03:08:39.212Z,3.55
2022-08-22T03:11:27.339Z,3.63
2022-08-22T03:14:09.652Z,3.78
2022-08-22T03:16:44.786Z,3.70
2022-08-22T03:19:44.127Z,4.00
2022-08-22T03:22:54.718Z,3.83
2022-08-22T03:25:32.435Z,3.70
2022-08-22T03:28:06.615Z,4.28
2022-08-22T03:30:36.866Z,3.30
2022-08-22T03:33:23.801Z,3.70
2022-08-22T03:36:24.749Z,3.50
2022-08-22T03:39:18.532Z,3.65
2022-08-22T03:42:41.059Z,3.65
2022-08-22T03:45:45.408Z,3.45
2022-08-22T03:48:30.470Z,3.22
2022-08-22T03:51:28.124Z,4.15
2022-08-22T03:54:22.177Z,4.00
2022-08-22T03:57:06.538Z,4.43
2022-08-22T03:59:47.575Z,4.18
2022-08-22T04:02:43.481Z,3.60
2022-08-22T04:05:32.129Z,3.95
2022-08-22T04:08:18.229Z,3.58
2022-08-22T04:11:19.168Z,5.68
2022-08-22T04:14:11.048Z,5.53
2022-08-22T04:16:53.144Z,3.97
2022-08-22T04:19:45.512Z,5.60
2022-08-22T04:22:21.419Z,4.45
2022-08-22T04:25:16.878Z,5.18
2022-08-22T04:28:03.470Z,6.38
2022-08-22T04:30:35.539Z,6.03
2022-08-22T04:33:14.472Z,6.07
2022-08-22T04:36:01.296Z,4.90
2022-08-22T04:38:37.259Z,3.38
2022-08-22T04:41:13.788Z,4.78
2022-08-22T04:44:22.725Z,4.18
2022-08-22T04:47:04.880Z,3.90
2022-08-22T04:49:46.999Z,4.68
2022-08-22T04:52:29.590Z,4.28
2022-08-22T04:55:15.674Z,3.80
2022-08-22T04:58:01.921Z,4.05
2022-08-22T05:00:56.812Z,3.95
2022-08-22T05:03:26.920Z,3.72
2022-08-22T05:05:55.802Z,3.90
2022-08-22T05:08:27.245Z,4.18
2022-08-22T05:10:55.186Z,3.50
2022-08-22T05:13:28.915Z,3.58
2022-08-22T05:16:03.420Z,3.75
2022-08-22T05:18:36.609Z,3.28
2022-08-22T05:21:07.541Z,3.90
2022-08-22T05:23:48.469Z,4.15
2022-08-22T05:26:17.295Z,4.50
2022-08-22T05:28:52.953Z,4.55
2022-08-22T05:31:32.113Z,4.30
2022-08-22T05:34:11.386Z,3.45
2022-08-22T05:36:46.798Z,3.65
2022-08-22T05:39:17.859Z,3.55
2022-08-22T05:41:46.038Z,4.25
2022-08-22T05:44:24.356Z,7.80
2022-08-22T05:47:00.157Z,5.53
2022-08-22T05:49:45.239Z,9.05
2022-08-22T05:52:34.803Z,5.10
2022-08-22T05:55:05.454Z,5.70
2022-08-22T05:57:38.314Z,3.58
2022-08-22T06:00:13.215Z,3.60
2022-08-22T06:03:00.661Z,3.58
2022-08-22T06:05:37.899Z,3.85
2022-08-22T06:08:30.112Z,5.60
2022-08-22T06:11:03.176Z,6.82
2022-08-22T06:13:41.453Z,4.07
2022-08-22T06:16:23.760Z,4.13
2022-08-22T06:18:52.543Z,4.15
2022-08-22T06:21:39.398Z,3.58
2022-08-22T06:24:13.390Z,5.53
2022-08-22T06:26:48.569Z,5.45
2022-08-22T06:29:29.450Z,3.88
2022-08-22T06:31:57.913Z,4.88
2022-08-22T06:34:29.540Z,4.85
2022-08-22T06:36:58.703Z,4.30
2022-08-22T06:39:35.089Z,4.57
2022-08-22T06:42:05.007Z,4.50
2022-08-22T06:44:57.965Z,3.88
2022-08-22T06:47:33.300Z,4.05
2022-08-22T06:50:06.262Z,4.20
2022-08-22T06:53:01.613Z,9.75
2022-08-22T06:55:30.463Z,5.93
2022-08-22T06:58:03.263Z,6.57
2022-08-22T07:00:33.417Z,4.00
2022-08-22T07:03:25.633Z,3.95
2022-08-22T07:05:55.865Z,4.63
2022-08-22T07:08:24.808Z,5.20
2022-08-22T07:11:13.158Z,3.72
2022-08-22T07:13:45.700Z,3.88
2022-08-22T07:16:13.189Z,4.38
2022-08-22T07:18:50.911Z,4.95
2022-08-22T07:21:42.854Z,4.00
2022-08-22T07:24:14.210Z,3.53
2022-08-22T07:27:12.904Z,4.20
2022-08-22T07:29:54.768Z,3.63
2022-08-22T07:32:29.058Z,3.80
2022-08-22T07:35:15.908Z,3.28
2022-08-22T07:38:01.749Z,3.38
2022-08-22T07:40:38.801Z,3.20
2022-08-22T07:43:18.972Z,3.15
2022-08-22T07:45:58.632Z,3.55
2022-08-22T07:48:59.310Z,2.60
2022-08-22T07:51:46.624Z,2.38
2022-08-22T07:54:17.172Z,2.10
2022-08-22T07:56:53.637Z,1.60
2022-08-22T07:59:22.321Z,1.83
2022-08-22T08:01:53.649Z,1.92
2022-08-22T08:04:27.303Z,1.90
2022-08-22T08:06:57.914Z,2.22
2022-08-22T08:09:35.516Z,2.10
2022-08-22T08:12:05.930Z,2.78
2022-08-22T08:14:36.674Z,1.92
2022-08-22T08:17:10.730Z,2.20
2022-08-22T08:19:41.549Z,1.65
2022-08-22T08:22:15.196Z,2.03
2022-08-22T08:24:45.378Z,1.83
2022-08-22T08:27:39.622Z,2.15
2022-08-22T08:30:43.421Z,1.85
2022-08-22T08:33:26.080Z,1.75
2022-08-22T08:36:25.180Z,1.60
2022-08-22T08:39:10.225Z,1.70
2022-08-22T08:42:11.398Z,1.63
2022-08-22T08:44:53.996Z,1.67
2022-08-22T08:47:39.878Z,1.70
2022-08-22T08:50:25.926Z,1.73
2022-08-22T08:53:13.267Z,2.22
2022-08-22T08:56:19.463Z,1.90
2022-08-22T08:59:03.736Z,1.63
2022-08-22T09:02:04.563Z,1.48
2022-08-22T09:05:01.427Z,1.60
2022-08-22T09:07:46.270Z,1.70
2022-08-22T09:10:30.284Z,1.83
2022-08-22T09:13:11.661Z,1.35
2022-08-22T09:16:04.699Z,1.90
2022-08-22T09:18:41.908Z,1.60
2022-08-22T09:21:32.908Z,1.73
2022-08-22T09:23:59.824Z,1.70
2022-08-22T09:26:34.500Z,1.38
2022-08-22T09:29:10.414Z,2.00
2022-08-22T09:32:03.620Z,1.95
2022-08-22T09:34:34.683Z,1.73
2022-08-22T09:37:26.024Z,1.70
2022-08-22T09:39:59.737Z,1.92
2022-08-22T09:42:33.811Z,1.75
2022-08-22T09:45:22.769Z,1.65
2022-08-22T09:48:26.759Z,1.85
2022-08-22T09:51:32.386Z,1.80
2022-08-22T09:54:10.219Z,2.40
2022-08-22T09:56:49.598Z,1.70
2022-08-22T09:59:44.952Z,2.20
2022-08-22T10:02:43.890Z,1.60
2022-08-22T10:05:43.926Z,1.25
2022-08-22T10:08:33.277Z,1.90
2022-08-22T10:11:34.333Z,1.48
2022-08-22T10:14:22.343Z,1.63
2022-08-22T10:17:08.336Z,1.00
2022-08-22T10:20:31.441Z,1.65
2022-08-22T10:23:14.832Z,1.50
2022-08-22T10:26:03.727Z,0.98
2022-08-22T10:28:55.206Z,1.30
2022-08-22T10:31:45.100Z,1.50
2022-08-22T10:34:35.254Z,1.52
2022-08-22T10:37:11.249Z,1.42
2022-08-22T10:39:48.826Z,1.70
2022-08-22T10:42:42.168Z,1.90
2022-08-22T10:45:35.967Z,1.40
2022-08-22T10:48:07.981Z,1.45
2022-08-22T10:50:44.974Z,1.95
2022-08-22T10:53:51.551Z,1.50
2022-08-22T10:56:45.597Z,1.73
2022-08-22T10:59:18.825Z,1.77
2022-08-22T11:02:28.526Z,2.72
2022-08-22T11:05:17.625Z,1.30
2022-08-22T11:08:04.354Z,1.35
2022-08-22T11:10:39.969Z,1.55
2022-08-22T11:13:35.894Z,1.48
2022-08-22T11:16:41.958Z,2.42
2022-08-22T11:19:15.973Z,1.80
2022-08-22T11:21:54.958Z,1.42
2022-08-22T11:24:34.856Z,1.33
2022-08-22T11:27:12.990Z,1.55
2022-08-22T11:30:18.500Z,1.77
2022-08-22T11:33:06.227Z,1.63
2022-08-22T11:35:51.162Z,1.60
2022-08-22T11:38:36.321Z,1.60
2022-08-22T11:41:12.762Z,1.60
2022-08-22T11:44:21.023Z,1.80
2022-08-22T11:46:51.236Z,1.45
2022-08-22T11:49:41.828Z,2.75
2022-08-22T11:52:28.282Z,1.60
2022-08-22T11:55:07.185Z,1.58
2022-08-22T11:57:47.505Z,2.83
2022-08-22T12:00:20.620Z,1.60
2022-08-22T12:03:16.514Z,1.30
2022-08-22T12:05:47.173Z,1.27
2022-08-22T12:08:24.761Z,1.70
2022-08-22T12:11:16.893Z,1.35
2022-08-22T12:14:02.358Z,1.00
2022-08-22T12:16:47.291Z,3.20
2022-08-22T12:19:35.398Z,4.93
2022-08-22T12:22:54.951Z,2.72
2022-08-22T12:25:34.838Z,1.70
2022-08-22T12:28:32.945Z,1.80
2022-08-22T12:31:56.499Z,1.60
2022-08-22T12:34:52.833Z,1.88
2022-08-22T12:37:52.273Z,2.47
2022-08-22T12:41:28.037Z,1.30
2022-08-22T12:44:17.146Z,1.60
2022-08-22T12:46:50.103Z,1.02
2022-08-22T12:49:31.415Z,1.25
2022-08-22T12:52:39.745Z,1.88
2022-08-22T12:55:16.244Z,3.10
2022-08-22T12:58:15.422Z,1.10
2022-08-22T13:00:47.510Z,2.47
2022-08-22T13:03:25.265Z,1.42
2022-08-22T13:05:59.896Z,1.30
2022-08-22T13:08:37.271Z,1.60
2022-08-22T13:11:22.971Z,1.50
2022-08-22T13:14:01.019Z,2.38
2022-08-22T13:16:37.788Z,1.60
2022-08-22T13:19:13.692Z,1.77
2022-08-22T13:21:48.781Z,1.20
2022-08-22T13:24:38.610Z,1.48
2022-08-22T13:27:15.140Z,1.10
2022-08-22T13:29:57.171Z,1.88
2022-08-22T13:32:38.323Z,1.42
2022-08-22T13:35:09.894Z,1.50
2022-08-22T13:37:43.453Z,1.50
2022-08-22T13:40:21.740Z,1.60
2022-08-22T13:42:55.215Z,3.47
2022-08-22T13:45:25.993Z,1.75
2022-08-22T13:47:58.053Z,1.35
2022-08-22T13:50:29.046Z,1.83
2022-08-22T13:53:09.544Z,3.10
2022-08-22T13:55:48.996Z,1.60
2022-08-22T13:58:32.144Z,1.27
2022-08-22T14:01:25.313Z,2.55
2022-08-22T14:04:35.895Z,1.20
2022-08-22T14:07:04.512Z,1.13
2022-08-22T14:09:56.121Z,1.20
2022-08-22T14:12:49.920Z,2.47
2022-08-22T14:15:23.593Z,1.80
2022-08-22T14:18:00.802Z,1.40
2022-08-22T14:20:33.423Z,1.23
2022-08-22T14:23:09.426Z,1.38
2022-08-22T14:25:41.903Z,1.38
2022-08-22T14:28:27.476Z,1.75
2022-08-22T14:31:13.524Z,1.40
2022-08-22T14:33:57.893Z,1.27
2022-08-22T14:36:35.903Z,1.58
2022-08-22T14:39:16.656Z,1.45
2022-08-22T14:42:04.182Z,6.90
2022-08-22T14:44:44.811Z,1.23
2022-08-22T14:47:55.115Z,1.30
2022-08-22T14:50:39.766Z,5.20
2022-08-22T14:53:13.020Z,1.50
2022-08-22T14:55:43.112Z,1.13
2022-08-22T14:58:26.561Z,1.10
2022-08-22T15:00:56.497Z,1.45
2022-08-22T15:03:29.446Z,1.10
2022-08-22T15:06:05.147Z,1.25
2022-08-22T15:08:37.622Z,1.15
2022-08-22T15:11:25.588Z,1.38
2022-08-22T15:14:27.047Z,1.42
2022-08-22T15:16:59.726Z,1.30
2022-08-22T15:19:36.227Z,1.23
2022-08-22T15:22:27.504Z,2.28
2022-08-22T15:25:40.989Z,1.73
2022-08-22T15:28:13.964Z,2.22
2022-08-22T15:30:44.586Z,1.05
2022-08-22T15:33:43.271Z,1.50
2022-08-22T15:36:24.759Z,1.38
2022-08-22T15:39:16.780Z,3.20
2022-08-22T15:41:48.470Z,1.30
2022-08-22T15:44:32.608Z,1.67
2022-08-22T15:47:00.267Z,1.50
2022-08-22T15:49:35.897Z,1.48
2022-08-22T15:52:11.164Z,4.45
2022-08-22T15:54:53.384Z,1.08
2022-08-22T15:57:41.796Z,1.40
2022-08-22T16:00:29.727Z,1.50
2022-08-22T16:03:26.563Z,1.20
2022-08-22T16:06:14.685Z,1.20
2022-08-22T16:08:51.199Z,1.48
2022-08-22T16:11:24.257Z,1.30
2022-08-22T16:14:19.164Z,1.45
2022-08-22T16:16:52.971Z,2.13
2022-08-22T16:19:25.515Z,1.33
2022-08-22T16:21:52.481Z,1.45
2022-08-22T16:24:21.735Z,1.45
2022-08-22T16:26:49.060Z,2.47
2022-08-22T16:29:41.212Z,3.33
2022-08-22T16:32:11.963Z,3.13
2022-08-22T16:34:46.076Z,1.13
2022-08-22T16:37:18.124Z,1.25
2022-08-22T16:40:01.907Z,1.65
2022-08-22T16:42:52.258Z,1.83
2022-08-22T16:45:21.992Z,7.70
2022-08-22T16:47:58.620Z,1.40
2022-08-22T16:50:28.356Z,1.42
2022-08-22T16:53:10.239Z,0.90
2022-08-22T16:56:04.815Z,1.50
2022-08-22T16:58:59.202Z,1.25
2022-08-22T17:02:01.191Z,1.30
2022-08-22T17:04:54.084Z,1.48
2022-08-22T17:07:28.769Z,1.13
2022-08-22T17:10:14.391Z,3.10
2022-08-22T17:12:52.951Z,1.27
2022-08-22T17:15:44.712Z,1.48
2022-08-22T17:18:24.553Z,1.25
2022-08-22T17:21:06.548Z,1.30
2022-08-22T17:24:00.073Z,1.35
2022-08-22T17:26:39.401Z,0.68
2022-08-22T17:29:20.726Z,1.02
2022-08-22T17:31:55.637Z,1.13
2022-08-22T17:35:00.570Z,1.58
2022-08-22T17:37:42.947Z,1.45
2022-08-22T17:40:16.189Z,1.35
2022-08-22T17:43:01.409Z,1.15
2022-08-22T17:46:12.950Z,1.00
2022-08-22T17:48:49.463Z,2.08
2022-08-22T17:51:30.408Z,1.52
2022-08-22T17:54:06.037Z,1.13
2022-08-22T17:57:05.412Z,1.40
2022-08-22T17:59:56.518Z,7.10
2022-08-22T18:02:29.732Z,1.10
2022-08-22T18:05:10.491Z,1.90
2022-08-22T18:07:46.458Z,1.52
2022-08-22T18:10:51.508Z,2.13
2022-08-22T18:13:53.943Z,1.65
2022-08-22T18:16:25.236Z,2.22
2022-08-22T18:18:57.613Z,2.78
2022-08-22T18:21:34.145Z,1.50
2022-08-22T18:24:11.586Z,1.52
2022-08-22T18:26:49.010Z,1.92
2022-08-22T18:29:23.876Z,1.60
2022-08-22T18:32:00.871Z,1.70
2022-08-22T18:34:54.249Z,1.38
2022-08-22T18:37:31.725Z,1.80
2022-08-22T18:40:28.034Z,2.72
2022-08-22T18:43:39.506Z,1.88
2022-08-22T18:46:28.850Z,1.60
2022-08-22T18:49:15.189Z,1.23
2022-08-22T18:51:43.531Z,1.73
2022-08-22T18:54:27.888Z,1.88
2022-08-22T18:57:05.751Z,1.10
2022-08-22T18:59:48.315Z,1.65
2022-08-22T19:02:34.008Z,1.80
2022-08-22T19:05:13.884Z,1.52
2022-08-22T19:08:00.141Z,1.55
2022-08-22T19:10:54.651Z,1.52
2022-08-22T19:13:50.842Z,1.90
2022-08-22T19:16:36.481Z,1.70
2022-08-22T19:19:17.852Z,2.10
2022-08-22T19:22:23.014Z,1.65
2022-08-22T19:25:26.394Z,1.67
2022-08-22T19:28:11.737Z,2.50
2022-08-22T19:31:05.752Z,1.58
2022-08-22T19:33:41.083Z,1.60
2022-08-22T19:36:29.460Z,2.10
2022-08-22T19:38:58.413Z,1.83
2022-08-22T19:41:40.336Z,1.73
2022-08-22T19:44:38.214Z,1.95
2022-08-22T19:47:17.560Z,2.00
2022-08-22T19:49:56.076Z,2.05
2022-08-22T19:52:30.281Z,2.30
2022-08-22T19:55:42.132Z,2.15
2022-08-22T19:58:50.809Z,2.17
2022-08-22T20:02:00.672Z,2.03
2022-08-22T20:04:48.504Z,2.40
2022-08-22T20:07:33.578Z,2.60
2022-08-22T20:10:34.440Z,2.15
2022-08-22T20:13:22.237Z,3.08
2022-08-22T20:16:13.691Z,1.88
2022-08-22T20:19:08.789Z,2.40
2022-08-22T20:21:42.419Z,1.92
2022-08-22T20:24:16.395Z,2.03
2022-08-22T20:27:09.964Z,2.22
2022-08-22T20:29:37.071Z,2.78
2022-08-22T20:32:06.278Z,2.10
2022-08-22T20:34:38.184Z,1.70
2022-08-22T20:37:29.343Z,1.85
2022-08-22T20:40:25.767Z,1.98
2022-08-22T20:43:22.895Z,1.90
2022-08-22T20:46:34.492Z,2.00
2022-08-22T20:49:02.911Z,1.70
2022-08-22T20:51:32.787Z,2.20
2022-08-22T20:54:01.414Z,2.22
2022-08-22T20:57:00.223Z,2.22
2022-08-22T20:59:32.218Z,1.98
2022-08-22T21:02:34.341Z,3.17
2022-08-22T21:05:24.111Z,2.53
2022-08-22T21:08:14.333Z,2.38
2022-08-22T21:11:01.276Z,2.45
2022-08-22T21:13:32.592Z,2.30
2022-08-22T21:16:02.804Z,1.90
2022-08-22T21:18:33.402Z,2.10
2022-08-22T21:21:17.631Z,2.15
2022-08-22T21:23:47.652Z,2.22
2022-08-22T21:26:28.759Z,2.20
2022-08-22T21:29:20.999Z,1.98
2022-08-22T21:31:54.619Z,2.10
2022-08-22T21:34:41.240Z,2.22
2022-08-22T21:37:15.014Z,2.10
2022-08-22T21:39:45.958Z,2.38
2022-08-22T21:42:31.827Z,2.20
2022-08-22T21:45:02.931Z,2.28
2022-08-22T21:47:31.277Z,2.20
2022-08-22T21:50:13.188Z,2.15
2022-08-22T21:52:44.805Z,2.88
2022-08-22T21:55:24.388Z,2.38
2022-08-22T21:58:09.779Z,2.58
2022-08-22T22:00:51.469Z,2.53
2022-08-22T22:03:22.144Z,2.53
2022-08-22T22:05:50.970Z,2.55
2022-08-22T22:08:18.215Z,2.40
2022-08-22T22:10:47.514Z,2.67
2022-08-22T22:13:14.698Z,2.58
2022-08-22T22:15:47.541Z,2.67
2022-08-22T22:18:17.661Z,3.65
2022-08-22T22:20:46.009Z,3.00
2022-08-22T22:23:13.048Z,2.85
2022-08-22T22:25:42.420Z,3.00
2022-08-22T22:28:40.129Z,2.60
2022-08-22T22:31:07.940Z,2.85
2022-08-22T22:33:38.555Z,2.78
2022-08-22T22:36:09.164Z,3.13
2022-08-22T22:38:38.123Z,2.30
2022-08-22T22:41:05.264Z,2.42
2022-08-22T22:43:33.119Z,3.03
2022-08-22T22:46:00.206Z,2.83
2022-08-22T22:48:27.792Z,3.20
2022-08-22T22:50:55.224Z,2.72
2022-08-22T22:53:38.061Z,2.50
2022-08-22T22:56:09.136Z,2.72
2022-08-22T22:58:37.638Z,2.60
2022-08-22T23:01:18.316Z,2.58
2022-08-22T23:03:46.301Z,2.63
2022-08-22T23:06:15.432Z,2.88
2022-08-22T23:08:43.007Z,2.72
2022-08-22T23:11:12.735Z,2.95
2022-08-22T23:13:41.716Z,2.92
2022-08-22T23:16:15.986Z,2.97
2022-08-22T23:18:43.555Z,3.67
2022-08-22T23:21:14.743Z,3.10
2022-08-22T23:23:42.207Z,2.97
2022-08-22T23:26:10.622Z,3.30
2022-08-22T23:28:37.935Z,3.40
2022-08-22T23:31:27.090Z,2.65
2022-08-22T23:33:55.157Z,2.83
2022-08-22T23:36:23.647Z,2.80
2022-08-22T23:38:52.163Z,2.70
2022-08-22T23:41:21.779Z,2.80
2022-08-22T23:43:52.356Z,3.40
2022-08-22T23:46:20.915Z,3.30
2022-08-22T23:48:48.361Z,3.22
2022-08-22T23:51:17.152Z,3.53
2022-08-22T23:53:50.235Z,3.22
2022-08-22T23:56:32.649Z,3.28
2022-08-22T23:59:01.670Z,3.50
